Time;durP1;ratioP1;P1;durP2;ratioP2;P2;SDS_P1;SDS_P2;PMS_P1;PMS_P2;Temp;Humidity;BMP_temperature;BMP_pressure;BME280_temperature;BME280_humidity;BME280_pressure;Samples;Min_cycle;Max_cycle;Signal;HPM_P1;HPM_P2
2022/01/24 00:02:10;;;;;;;107.63;45.50;;;;;;;1.69;100.00;102499.84;5164546;57;1143117;-74
2022/01/24 00:07:20;;;;;;;111.40;46.03;;;;;;;1.71;100.00;102506.35;5151838;57;1143170;-78
2022/01/24 00:17:49;;;;;;;108.83;44.00;;;;;;;1.71;100.00;102502.44;5147669;57;1143227;-77
2022/01/24 00:28:11;;;;;;;96.57;39.27;;;;;;;1.68;100.00;102499.89;5195455;56;1143621;-82
2022/01/24 00:33:20;;;;;;;91.63;37.27;;;;;;;1.68;100.00;102495.50;5194920;56;1141152;-74
2022/01/24 00:38:26;;;;;;;76.70;34.23;;;;;;;1.68;100.00;102491.59;5195080;56;1141281;-73
2022/01/24 00:43:56;;;;;;;80.73;34.37;;;;;;;1.66;100.00;102488.60;5194909;57;1141642;-77
2022/01/24 00:59:29;;;;;;;89.50;36.85;;;;;;;1.63;100.00;102488.63;5206675;56;1143451;-77
2022/01/24 01:21:08;;;;;;;94.22;39.33;;;;;;;1.58;100.00;102505.61;5246242;56;1141156;-76
2022/01/24 01:26:05;;;;;;;80.67;34.33;;;;;;;1.59;100.00;102494.73;5083497;57;1139225;-72
2022/01/24 01:31:16;;;;;;;84.13;36.80;;;;;;;1.61;100.00;102493.84;5081368;57;1138986;-75
2022/01/24 01:36:42;;;;;;;92.00;38.00;;;;;;;1.65;100.00;102486.43;5080231;57;1136966;-79
2022/01/24 01:52:45;;;;;;;87.57;38.75;;;;;;;1.62;100.00;102468.20;5080536;57;1141228;-78
2022/01/24 01:57:25;;;;;;;70.70;30.67;;;;;;;1.65;100.00;102472.08;5069733;57;1141113;-74
2022/01/24 02:02:31;;;;;;;74.77;32.90;;;;;;;1.65;100.00;102473.83;5081347;57;1141302;-78
2022/01/24 02:07:52;;;;;;;79.93;34.77;;;;;;;1.67;100.00;102470.77;5080984;57;1141497;-70
2022/01/24 02:12:58;;;;;;;65.07;29.60;;;;;;;1.72;100.00;102463.74;5080959;57;1141279;-77
2022/01/24 02:28:59;;;;;;;66.47;27.27;;;;;;;1.57;100.00;102472.58;5075073;57;1141238;-75
2022/01/24 02:33:55;;;;;;;61.90;26.33;;;;;;;1.59;100.00;102480.39;5074386;57;1141135;-74
2022/01/24 02:49:37;;;;;;;72.90;32.70;;;;;;;1.55;100.00;102487.37;5064445;57;1141104;-70
2022/01/24 02:54:44;;;;;;;64.73;30.73;;;;;;;1.63;100.00;102482.10;5064684;58;1141067;-83
2022/01/24 02:59:50;;;;;;;67.80;32.23;;;;;;;1.68;100.00;102482.46;5064813;57;1141036;-82
2022/01/24 03:04:57;;;;;;;67.83;32.27;;;;;;;1.70;100.00;102475.93;5064577;57;1141255;-83
2022/01/24 03:10:11;;;;;;;62.57;27.07;;;;;;;1.69;100.00;102474.20;5064270;57;1139003;-78
2022/01/24 03:15:12;;;;;;;54.90;25.23;;;;;;;1.71;100.00;102476.36;5063569;57;1139105;-82
2022/01/24 03:20:18;;;;;;;41.17;21.23;;;;;;;1.72;100.00;102472.88;5064082;57;1139520;-73
2022/01/24 03:25:24;;;;;;;55.80;24.27;;;;;;;1.69;100.00;102477.67;5137575;56;1139138;-76
2022/01/24 03:30:29;;;;;;;50.80;23.43;;;;;;;1.70;100.00;102487.23;5150805;56;1139162;-80
2022/01/24 03:35:36;;;;;;;37.10;19.17;;;;;;;1.72;100.00;102495.05;5150711;56;1139056;-73
2022/01/24 03:40:43;;;;;;;44.67;20.23;;;;;;;1.76;100.00;102496.31;5150086;56;1139342;-79
2022/01/24 03:46:09;;;;;;;40.00;16.23;;;;;;;1.82;100.00;102499.31;5162484;56;1139061;-81
2022/01/24 03:50:56;;;;;;;46.50;18.27;;;;;;;1.71;100.00;102496.78;5157147;57;1139066;-72
2022/01/24 03:56:02;;;;;;;49.50;21.67;;;;;;;1.56;100.00;102485.19;5162395;57;1139205;-81
2022/01/24 04:01:09;;;;;;;54.33;24.30;;;;;;;1.49;100.00;102486.58;5162608;56;1139303;-83
2022/01/24 04:06:15;;;;;;;53.40;23.70;;;;;;;1.47;100.00;102482.67;5162751;56;1139257;-77
2022/01/24 04:11:21;;;;;;;71.07;35.00;;;;;;;1.53;100.00;102486.98;5162753;57;1139019;-76
2022/01/24 04:16:32;;;;;;;50.30;23.93;;;;;;;1.63;100.00;102476.88;5162646;56;1139138;-78
2022/01/24 04:21:37;;;;;;;48.30;23.23;;;;;;;1.63;100.00;102482.10;5155538;56;1139039;-75
2022/01/24 04:26:42;;;;;;;157.33;76.57;;;;;;;1.57;100.00;102479.53;5163706;56;1139359;-78
2022/01/24 04:31:47;;;;;;;65.17;33.00;;;;;;;1.60;100.00;102479.08;5163782;56;1141310;-72
2022/01/24 04:36:53;;;;;;;65.17;31.47;;;;;;;1.65;100.00;102482.95;5163787;57;1137196;-79
2022/01/24 04:42:06;;;;;;;84.03;39.20;;;;;;;1.71;100.00;102485.05;5163788;57;1137293;-74
2022/01/24 04:52:56;;;;;;;50.30;21.27;;;;;;;1.60;100.00;102476.47;5164464;56;1141256;-77
2022/01/24 04:57:50;;;;;;;77.73;30.67;;;;;;;1.57;100.00;102480.84;5162496;56;1141033;-73
2022/01/24 05:02:56;;;;;;;60.53;28.60;;;;;;;1.59;100.00;102487.78;5164336;56;1141160;-81
2022/01/24 05:08:05;;;;;;;70.20;29.60;;;;;;;1.67;100.00;102482.07;5164314;57;1141234;-81
2022/01/24 05:23:57;;;;;;;50.33;21.23;;;;;;;1.63;100.00;102482.97;5163820;56;1141381;-78
2022/01/24 05:29:02;;;;;;;41.40;18.40;;;;;;;1.61;100.00;102486.46;5163027;57;1141125;-79
2022/01/24 05:34:08;;;;;;;62.70;29.53;;;;;;;1.60;100.00;102497.33;5163303;57;1141100;-77
2022/01/24 05:39:14;;;;;;;52.27;25.03;;;;;;;1.64;100.00;102508.17;5159499;56;1141133;-79
2022/01/24 05:44:21;;;;;;;59.43;28.87;;;;;;;1.72;100.00;102506.34;5163068;56;1141071;-79
2022/01/24 05:49:27;;;;;;;49.95;20.85;;;;;;;1.77;100.00;102503.70;5162693;57;1141209;-83
2022/01/24 05:54:33;;;;;;;56.30;21.83;;;;;;;1.73;100.00;102500.69;5162928;56;1141151;-77
2022/01/24 05:59:40;;;;;;;41.57;18.20;;;;;;;1.70;100.00;102513.31;5162367;56;1141194;-73
2022/01/24 06:04:46;;;;;;;44.77;19.97;;;;;;;1.67;100.00;102511.20;5151554;56;1141168;-78
2022/01/24 06:09:52;;;;;;;55.80;23.52;;;;;;;1.65;100.00;102508.59;5151571;56;1141084;-75
2022/01/24 06:14:58;;;;;;;54.13;21.90;;;;;;;1.64;100.00;102509.48;5151540;57;1141115;-78
2022/01/24 06:20:05;;;;;;;79.23;35.30;;;;;;;1.60;100.00;102513.42;5151585;56;1141147;-80
2022/01/24 06:25:13;;;;;;;86.57;32.30;;;;;;;1.52;100.00;102508.72;5209940;56;1141400;-82
2022/01/24 06:30:19;;;;;;;62.93;24.80;;;;;;;1.46;100.00;102514.84;5220572;56;1141088;-74
2022/01/24 06:35:24;;;;;;;60.70;26.13;;;;;;;1.40;100.00;102507.92;5220929;56;1141200;-75
2022/01/24 06:40:31;;;;;;;65.43;27.87;;;;;;;1.41;100.00;102519.22;5220662;56;1141121;-77
2022/01/24 06:45:37;;;;;;;63.30;27.83;;;;;;;1.45;100.00;102522.67;5221101;56;1141127;-74
2022/01/24 06:50:43;;;;;;;56.37;24.67;;;;;;;1.45;100.00;102530.05;5189707;56;1141268;-72
2022/01/24 06:55:49;;;;;;;72.07;29.03;;;;;;;1.44;100.00;102528.76;5221201;56;1139283;-75
2022/01/24 07:00:55;;;;;;;62.93;27.67;;;;;;;1.44;100.00;102536.14;5220733;56;1139059;-78
2022/01/24 07:06:01;;;;;;;72.93;27.80;;;;;;;1.47;100.00;102536.56;5220860;56;1139367;-76
2022/01/24 07:11:08;;;;;;;65.07;27.57;;;;;;;1.49;100.00;102536.98;5220719;56;1139087;-77
2022/01/24 07:16:14;;;;;;;77.50;32.20;;;;;;;1.56;100.00;102541.70;5220425;56;1139174;-77
2022/01/24 07:21:19;;;;;;;79.85;32.60;;;;;;;1.59;100.00;102546.45;5219346;56;1139196;-79
2022/01/24 07:26:25;;;;;;;68.37;28.40;;;;;;;1.58;100.00;102543.41;5207714;56;1139230;-74
2022/01/24 07:31:30;;;;;;;75.47;30.82;;;;;;;1.54;100.00;102552.13;5207585;56;1139078;-76
2022/01/24 07:36:42;;;;;;;77.47;31.23;;;;;;;1.57;100.00;102551.25;5208125;56;1139137;-76
2022/01/24 07:41:51;;;;;;;63.80;28.07;;;;;;;1.59;100.00;102560.80;5207221;56;1139014;-75
2022/01/24 07:46:57;;;;;;;72.33;30.83;;;;;;;1.66;100.00;102562.49;5172056;56;1138894;-70
2022/01/24 07:52:04;;;;;;;71.37;27.43;;;;;;;1.67;100.00;102564.23;5208270;56;1139125;-71
2022/01/24 07:57:09;;;;;;;76.70;29.50;;;;;;;1.65;100.00;102561.20;5208108;56;1139047;-79
2022/01/24 08:02:15;;;;;;;78.67;31.33;;;;;;;1.66;100.00;102553.37;5207502;56;1139042;-77
2022/01/24 08:07:20;;;;;;;82.62;31.20;;;;;;;1.68;100.00;102551.58;5208999;56;1139046;-76
2022/01/24 08:12:26;;;;;;;68.27;28.57;;;;;;;1.71;100.00;102552.87;5207720;56;1139286;-75
2022/01/24 08:17:32;;;;;;;63.33;24.90;;;;;;;1.72;100.00;102550.69;5207511;56;1139239;-78
2022/01/24 08:22:39;;;;;;;69.47;27.10;;;;;;;1.70;100.00;102556.34;5211935;56;1137070;-75
2022/01/24 08:27:47;;;;;;;54.70;22.50;;;;;;;1.68;100.00;102551.58;5155548;56;1137140;-74
2022/01/24 08:32:52;;;;;;;69.13;30.63;;;;;;;1.72;100.00;102548.52;5153715;56;1141121;-76
2022/01/24 08:37:58;;;;;;;57.80;25.53;;;;;;;1.73;100.00;102545.89;5153600;56;1141146;-75
2022/01/24 08:43:06;;;;;;;67.27;28.47;;;;;;;1.77;100.00;102546.74;5153136;56;1141132;-78
2022/01/24 08:48:13;;;;;;;61.83;28.37;;;;;;;1.80;100.00;102551.07;5153254;56;1141151;-72
2022/01/24 08:53:19;;;;;;;54.07;22.67;;;;;;;1.83;100.00;102546.70;5152719;57;1141169;-79
2022/01/24 08:58:27;;;;;;;46.10;22.87;;;;;;;1.89;100.00;102546.62;5152783;57;1141162;-74
2022/01/24 09:03:38;;;;;;;49.03;20.63;;;;;;;1.93;100.00;102542.25;5151817;56;1141294;-79
2022/01/24 09:08:40;;;;;;;46.17;21.80;;;;;;;1.96;100.00;102540.92;5152746;56;1141065;-76
2022/01/24 09:13:46;;;;;;;41.87;17.73;;;;;;;1.96;100.00;102539.18;5152861;56;1141372;-74
2022/01/24 09:18:53;;;;;;;44.37;18.37;;;;;;;1.99;100.00;102534.34;5153397;56;1141145;-79
2022/01/24 09:24:00;;;;;;;50.50;23.10;;;;;;;2.03;100.00;102534.74;5151819;57;1141293;-72
2022/01/24 09:29:06;;;;;;;572.10;348.87;;;;;;;2.08;100.00;102532.96;5150814;56;1141389;-76
2022/01/24 09:34:12;;;;;;;92.20;54.03;;;;;;;2.11;100.00;102535.55;5151082;56;1145437;-79
2022/01/24 09:39:19;;;;;;;70.60;39.87;;;;;;;2.13;100.00;102535.09;5151396;57;1141278;-77
2022/01/24 09:44:25;;;;;;;118.73;65.53;;;;;;;2.19;100.00;102527.63;5151478;56;1141188;-72
2022/01/24 09:49:31;;;;;;;286.77;97.77;;;;;;;2.23;100.00;102532.80;5150710;57;1143185;-77
2022/01/24 09:54:37;;;;;;;284.13;100.37;;;;;;;2.22;100.00;102537.59;5151231;56;1143174;-76
2022/01/24 09:59:43;;;;;;;103.50;34.57;;;;;;;2.25;100.00;102533.66;5151353;56;1145350;-78
2022/01/24 10:04:49;;;;;;;171.23;58.17;;;;;;;2.29;100.00;102529.27;5151412;57;1143274;-77
2022/01/24 10:09:56;;;;;;;131.90;49.77;;;;;;;2.34;100.00;102528.31;5151376;57;1143263;-75
2022/01/24 10:20:42;;;;;;;37.17;19.87;;;;;;;2.39;100.00;102522.61;5157940;56;1141213;-75
2022/01/24 10:26:05;;;;;;;121.83;50.33;;;;;;;2.40;100.00;102511.72;5070191;57;1141346;-81
2022/01/24 10:31:20;;;;;;;35.67;19.33;;;;;;;2.41;100.00;102501.27;5150255;57;1143236;-68
2022/01/24 10:36:36;;;;;;;25.63;13.20;;;;;;;2.44;100.00;102492.53;5150900;56;1141152;-73
2022/01/24 10:47:32;;;;;;;22.00;10.03;;;;;;;2.57;100.00;102484.09;5151377;56;1139101;-70
2022/01/24 10:52:35;;;;;;;17.02;9.03;;;;;;;2.60;100.00;102484.89;5148754;56;1139020;-72
2022/01/24 10:57:43;;;;;;;28.33;13.57;;;;;;;2.66;100.00;102482.22;5153269;56;1137022;-73
2022/01/24 11:02:53;;;;;;;46.93;25.33;;;;;;;2.67;100.00;102473.94;5153235;56;1139133;-71
2022/01/24 11:08:05;;;;;;;12.88;6.50;;;;;;;2.71;100.00;102465.17;5163928;57;1139042;-77
2022/01/24 11:13:13;;;;;;;23.23;12.87;;;;;;;2.71;100.00;102464.73;5164044;57;1134922;-73
2022/01/24 11:18:23;;;;;;;59.43;31.00;;;;;;;2.68;100.00;102471.30;5163433;56;1177630;-78
2022/01/24 11:23:30;;;;;;;126.00;36.87;;;;;;;2.72;100.00;102460.37;5163895;57;1141058;-77
2022/01/24 11:28:35;;;;;;;148.70;51.37;;;;;;;2.75;100.00;102462.48;5156803;56;1143229;-76
2022/01/24 11:33:43;;;;;;;81.40;32.05;;;;;;;2.82;100.00;102460.22;5151675;57;1143108;-77
2022/01/24 11:38:50;;;;;;;63.17;25.10;;;;;;;2.86;100.00;102461.04;5151446;57;1141301;-73
2022/01/24 11:44:08;;;;;;;68.97;21.70;;;;;;;2.90;100.00;102454.89;5128439;56;1141347;-72
2022/01/24 11:49:12;;;;;;;122.00;43.80;;;;;;;2.90;100.00;102446.19;5223312;56;1141245;-79
2022/01/24 11:55:02;;;;;;;118.37;32.60;;;;;;;2.92;100.00;102443.08;5211953;56;1143161;-74
2022/01/24 12:00:08;;;;;;;64.50;26.42;;;;;;;2.95;100.00;102435.20;5229230;56;1143301;-75
2022/01/24 12:05:31;;;;;;;80.93;38.83;;;;;;;2.95;100.00;102433.45;5235515;56;1141359;-77
2022/01/24 12:10:43;;;;;;;87.07;40.57;;;;;;;2.95;100.00;102428.22;5225745;56;1141191;-78
2022/01/24 12:16:01;;;;;;;52.00;31.13;;;;;;;2.96;100.00;102421.25;5226061;56;1141281;-78
2022/01/24 12:21:14;;;;;;;40.23;20.13;;;;;;;2.96;100.00;102410.79;5225563;56;1141138;-74
2022/01/24 12:26:24;;;;;;;79.03;27.87;;;;;;;2.96;100.00;102414.71;5057146;58;1141384;-72
2022/01/24 12:31:42;;;;;;;69.60;26.53;;;;;;;2.99;100.00;102409.44;5080302;57;1141543;-72
2022/01/24 12:36:59;;;;;;;33.27;19.30;;;;;;;2.99;100.00;102406.39;5154837;57;1141099;-76
2022/01/24 12:43:50;;;;;;;15.73;8.60;;;;;;;3.01;100.00;102408.53;5124073;57;1139431;-73
2022/01/24 12:47:27;;;;;;;17.30;11.33;;;;;;;3.03;100.00;102401.98;5081059;57;1137121;-70
2022/01/24 12:52:34;;;;;;;24.80;12.17;;;;;;;3.04;100.00;102396.73;5191281;56;1139065;-73
2022/01/24 12:57:43;;;;;;;26.30;15.93;;;;;;;3.06;100.00;102401.91;5210655;56;1139106;-75
2022/01/24 13:02:50;;;;;;;25.17;12.13;;;;;;;3.09;100.00;102401.86;5210726;56;1138910;-81
2022/01/24 13:07:59;;;;;;;24.40;13.93;;;;;;;3.09;100.00;102413.18;5211054;56;1139001;-73
2022/01/24 13:13:11;;;;;;;131.63;49.00;;;;;;;3.07;100.00;102399.71;5211473;56;1139085;-76
2022/01/24 13:24:00;;;;;;;79.07;38.27;;;;;;;3.01;100.00;102376.30;5201672;56;1136926;-75
2022/01/24 13:29:10;;;;;;;63.07;30.40;;;;;;;3.06;100.00;102387.53;5189688;56;1141120;-79
2022/01/24 13:34:21;;;;;;;45.27;24.27;;;;;;;3.06;100.00;102391.00;5163595;57;1141168;-76
2022/01/24 13:39:27;;;;;;;27.77;16.83;;;;;;;3.09;100.00;102387.04;5164871;56;1141139;-73
2022/01/24 13:44:34;;;;;;;23.93;13.40;;;;;;;3.08;100.00;102386.62;5162452;56;1141073;-78
2022/01/24 13:49:40;;;;;;;17.53;8.97;;;;;;;3.09;100.00;102384.42;5159798;56;1143411;-72
2022/01/24 13:54:45;;;;;;;75.97;27.10;;;;;;;3.05;100.00;102380.16;5154351;57;1139334;-77
2022/01/24 13:59:52;;;;;;;79.47;28.47;;;;;;;3.08;100.00;102387.06;5163382;57;21209;-81
2022/01/24 14:05:03;;;;;;;30.27;16.97;;;;;;;3.04;100.00;102386.27;5166430;56;1136946;-82
2022/01/24 14:10:29;;;;;;;38.33;18.13;;;;;;;3.04;100.00;102382.80;5238021;56;1141109;-73
2022/01/24 14:20:38;;;;;;;34.63;19.00;;;;;;;3.02;100.00;102380.20;5154666;57;1141085;-85
2022/01/24 14:25:44;;;;;;;40.13;24.77;;;;;;;2.99;100.00;102379.38;5225460;56;1141296;-80
2022/01/24 14:30:54;;;;;;;27.50;16.13;;;;;;;2.97;100.00;102382.47;5202508;56;1141088;-79
2022/01/24 14:36:16;;;;;;;25.80;13.80;;;;;;;2.99;100.00;102383.30;5190880;56;1141335;-72
2022/01/24 14:41:40;;;;;;;39.33;21.80;;;;;;;2.99;100.00;102381.55;5138956;57;1141056;-80
2022/01/24 14:46:45;;;;;;;31.23;17.83;;;;;;;2.99;100.00;102376.33;5162046;56;1141122;-75
2022/01/24 14:52:05;;;;;;;40.85;21.62;;;;;;;2.98;100.00;102375.91;5188315;56;1141204;-79
2022/01/24 14:57:16;;;;;;;54.47;26.40;;;;;;;3.01;100.00;102381.09;5206769;56;1141112;-73
2022/01/24 15:02:22;;;;;;;70.43;39.07;;;;;;;2.99;100.00;102375.47;5216530;56;1141139;-75
2022/01/24 15:07:28;;;;;;;60.13;28.50;;;;;;;2.97;100.00;102375.93;5184465;56;1141134;-78
2022/01/24 15:12:37;;;;;;;78.57;39.63;;;;;;;2.96;100.00;102379.42;5194518;56;1138921;-76
2022/01/24 15:28:19;;;;;;;121.77;85.90;;;;;;;2.96;100.00;102384.21;5164587;57;1145316;-78
2022/01/24 15:33:22;;;;;;;91.03;44.07;;;;;;;2.96;100.00;102379.42;5140722;57;1141295;-74
2022/01/24 15:38:28;;;;;;;46.83;22.23;;;;;;;2.95;100.00;102372.47;5123471;57;1139032;-76
2022/01/24 15:43:58;;;;;;;44.37;18.40;;;;;;;2.91;100.00;102376.02;5147110;56;1139033;-72
2022/01/24 15:48:47;;;;;;;27.70;15.88;;;;;;;2.90;100.00;102374.32;5132301;57;1139083;-73
2022/01/24 15:53:53;;;;;;;29.30;17.63;;;;;;;2.90;100.00;102378.24;5115032;57;1139072;-90
2022/01/24 15:58:59;;;;;;;40.13;24.53;;;;;;;2.89;100.00;102376.07;5061677;57;1138542;-80
2022/01/24 16:04:06;;;;;;;39.87;24.50;;;;;;;2.90;100.00;102376.49;5112593;57;1139050;-75
2022/01/24 16:09:12;;;;;;;31.73;17.60;;;;;;;2.90;100.00;102379.55;5088479;57;1136905;-81
2022/01/24 16:14:18;;;;;;;50.43;30.23;;;;;;;2.89;100.00;102381.30;5130606;57;1137010;-74
2022/01/24 16:19:27;;;;;;;48.42;26.65;;;;;;;2.90;100.00;102383.02;4954946;59;1141328;-77
2022/01/24 16:29:38;;;;;;;35.90;20.87;;;;;;;2.92;100.00;102379.05;5141673;57;1142951;-75
2022/01/24 16:34:44;;;;;;;36.20;20.30;;;;;;;2.93;100.00;102375.11;5101323;57;1143171;-78
2022/01/24 16:39:56;;;;;;;52.33;25.90;;;;;;;2.93;100.00;102369.02;5131172;57;1141217;-80
2022/01/24 16:47:01;;;;;;;127.67;74.07;;;;;;;2.91;100.00;102368.17;5144721;57;1141063;-78
2022/01/24 16:50:13;;;;;;;117.43;51.80;;;;;;;2.95;100.00;102368.11;5095992;57;1145325;-71
2022/01/24 16:55:22;;;;;;;157.60;68.87;;;;;;;2.98;100.00;102373.73;5113400;57;1145302;-75
2022/01/24 17:00:26;;;;;;;96.63;48.23;;;;;;;2.98;100.00;102368.06;5100013;57;1145256;-79
2022/01/24 17:05:32;;;;;;;115.47;46.30;;;;;;;2.98;100.00;102355.44;5104905;56;1141087;-73
2022/01/24 17:10:42;;;;;;;62.00;34.07;;;;;;;2.99;100.00;102362.39;5153691;56;1143364;-71
2022/01/24 17:15:52;;;;;;;43.50;23.20;;;;;;;2.97;100.00;102358.50;5146935;56;1141127;-73
2022/01/24 17:20:58;;;;;;;44.57;20.37;;;;;;;2.97;100.00;102358.50;5140749;56;1140726;-75
2022/01/24 17:26:05;;;;;;;156.97;73.07;;;;;;;2.98;100.00;102356.75;5162746;56;1141167;-80
2022/01/24 17:31:11;;;;;;;64.10;31.57;;;;;;;2.95;100.00;102355.48;5170382;56;1143238;-80
2022/01/24 17:36:17;;;;;;;63.73;32.40;;;;;;;2.93;100.00;102348.11;5137860;57;1141168;-76
2022/01/24 17:41:22;;;;;;;67.60;30.27;;;;;;;2.88;100.00;102344.29;5068420;57;1141208;-73
2022/01/24 17:46:30;;;;;;;73.77;34.67;;;;;;;2.88;100.00;102345.59;5078481;57;1141128;-78
2022/01/24 17:51:35;;;;;;;69.87;33.57;;;;;;;2.87;100.00;102343.88;5081074;56;1141145;-76
2022/01/24 17:56:44;;;;;;;80.67;34.00;;;;;;;2.85;100.00;102348.25;5079728;56;1141001;-78
2022/01/24 18:01:49;;;;;;;96.40;42.97;;;;;;;2.86;100.00;102343.45;5083988;57;1141362;-81
2022/01/24 18:06:56;;;;;;;56.00;28.67;;;;;;;2.89;100.00;102347.77;5043587;58;1141683;-83
2022/01/24 18:12:03;;;;;;;74.67;39.40;;;;;;;2.90;100.00;102340.34;5087027;57;1141652;-78
2022/01/24 18:17:09;;;;;;;106.90;41.30;;;;;;;2.91;100.00;102340.73;5139373;57;1141367;-82
2022/01/24 18:22:15;;;;;;;84.72;38.53;;;;;;;2.94;100.00;102335.47;5079775;57;1145487;-77
2022/01/24 18:27:21;;;;;;;96.80;57.30;;;;;;;2.97;100.00;102342.81;5072301;57;1143369;-74
2022/01/24 18:32:29;;;;;;;122.30;69.47;;;;;;;2.98;100.00;102338.01;5073799;57;1143316;-78
2022/01/24 18:37:35;;;;;;;58.50;32.57;;;;;;;3.00;100.00;102321.00;5146109;57;1145330;-74
2022/01/24 18:42:43;;;;;;;52.93;30.00;;;;;;;3.03;100.00;102319.64;5146193;57;1143494;-75
2022/01/24 18:47:49;;;;;;;105.30;49.40;;;;;;;3.02;100.00;102317.47;5145788;57;1141347;-79
2022/01/24 18:52:56;;;;;;;76.47;29.53;;;;;;;2.99;100.00;102312.73;5162381;56;1143158;-74
2022/01/24 18:58:01;;;;;;;63.03;28.03;;;;;;;3.01;100.00;102318.80;5244982;55;1141062;-78
2022/01/24 19:03:08;;;;;;;67.87;31.40;;;;;;;2.97;100.00;102305.36;5242452;56;1141218;-74
2022/01/24 19:08:16;;;;;;;57.07;27.77;;;;;;;2.96;100.00;102308.42;5268751;55;1141106;-76
2022/01/24 19:13:22;;;;;;;91.23;42.33;;;;;;;2.96;100.00;102303.19;5310391;55;1139338;-73
2022/01/24 19:18:33;;;;;;;214.63;105.70;;;;;;;2.99;100.00;102302.28;5306449;55;1139406;-80
2022/01/24 19:23:37;;;;;;;116.40;57.43;;;;;;;3.03;100.00;102302.20;5266620;55;1145359;-75
2022/01/24 19:28:46;;;;;;;77.07;35.40;;;;;;;3.07;100.00;102304.30;5232038;56;1143202;-77
2022/01/24 19:33:52;;;;;;;49.83;27.43;;;;;;;3.13;100.00;102311.59;5238404;55;1141280;-76
2022/01/24 19:38:57;;;;;;;62.15;28.27;;;;;;;3.15;100.00;102307.20;5246444;55;1141083;-77
2022/01/24 19:44:03;;;;;;;177.30;84.73;;;;;;;3.14;100.00;102305.92;5250177;56;1139287;-77
2022/01/24 19:49:09;;;;;;;65.93;30.53;;;;;;;3.13;100.00;102306.38;5250569;55;1141088;-76
2022/01/24 19:54:17;;;;;;;33.80;17.20;;;;;;;3.17;100.00;102306.73;5220114;56;1141362;-76
2022/01/24 19:59:33;;;;;;;41.23;20.00;;;;;;;3.18;100.00;102310.22;5234301;56;1141282;-76
2022/01/24 20:04:29;;;;;;;60.87;30.30;;;;;;;3.18;100.00;102303.68;5166427;56;1141148;-80
2022/01/24 20:09:35;;;;;;;43.30;20.87;;;;;;;3.20;100.00;102299.73;5163359;57;1141120;-74
2022/01/24 20:14:41;;;;;;;47.87;24.90;;;;;;;3.22;100.00;102298.79;5162845;56;1141115;-78
2022/01/24 20:19:46;;;;;;;30.87;17.10;;;;;;;3.24;100.00;102297.45;5152091;57;1141384;-76
2022/01/24 20:24:52;;;;;;;29.07;15.77;;;;;;;3.24;100.00;102294.84;5152604;57;1139171;-70
2022/01/24 20:29:58;;;;;;;31.20;16.90;;;;;;;3.22;100.00;102298.79;5152238;57;1139098;-78
2022/01/24 20:35:05;;;;;;;28.23;14.97;;;;;;;3.23;100.00;102302.27;5149321;56;1139298;-77
2022/01/24 20:40:14;;;;;;;31.67;16.77;;;;;;;3.23;100.00;102303.12;5140386;57;1137404;-76
2022/01/24 20:45:21;;;;;;;26.23;14.43;;;;;;;3.24;100.00;102308.78;5141976;57;1141255;-72
2022/01/24 20:50:33;;;;;;;28.23;13.57;;;;;;;3.26;100.00;102306.14;5142359;56;1141107;-75
2022/01/24 20:55:35;;;;;;;28.12;15.35;;;;;;;3.25;100.00;102303.97;5098215;56;1140959;-74
2022/01/24 21:00:42;;;;;;;29.47;16.07;;;;;;;3.25;100.00;102304.41;5190183;56;1141080;-75
2022/01/24 21:05:50;;;;;;;37.10;17.70;;;;;;;3.25;100.00;102307.89;5133332;56;1141094;-73
2022/01/24 21:10:59;;;;;;;28.43;14.73;;;;;;;3.25;100.00;102300.48;5177284;56;1141352;-76
2022/01/24 21:16:03;;;;;;;33.43;16.10;;;;;;;3.23;100.00;102305.75;5163542;56;1141095;-77
2022/01/24 21:21:11;;;;;;;29.00;15.40;;;;;;;3.20;100.00;102293.20;5178398;56;1141079;-76
2022/01/24 21:26:18;;;;;;;25.63;15.33;;;;;;;3.18;100.00;102286.24;5219143;56;1141180;-78
2022/01/24 21:31:26;;;;;;;20.40;11.20;;;;;;;3.20;100.00;102284.05;5219523;56;1141152;-75
2022/01/24 21:36:32;;;;;;;19.07;11.47;;;;;;;3.20;100.00;102281.44;5198404;56;1141135;-76
2022/01/24 21:41:39;;;;;;;22.00;11.93;;;;;;;3.22;100.00;102271.78;5147920;57;1141245;-78
2022/01/24 21:46:45;;;;;;;16.87;10.73;;;;;;;3.22;100.00;102262.19;5162602;57;1141116;-72
2022/01/24 21:51:52;;;;;;;15.30;8.37;;;;;;;3.23;100.00;102255.20;5161229;57;1141093;-69
2022/01/24 21:56:58;;;;;;;26.70;13.17;;;;;;;3.24;100.00;102253.01;5156223;57;1139054;-76
2022/01/24 22:02:03;;;;;;;23.07;11.70;;;;;;;3.23;100.00;102253.45;5156097;57;1141124;-76
2022/01/24 22:07:23;;;;;;;15.50;10.13;;;;;;;3.24;100.00;102247.78;5159966;57;1141344;-78
2022/01/24 22:12:17;;;;;;;18.42;10.88;;;;;;;3.24;100.00;102245.16;5158540;57;1141079;-76
2022/01/24 22:17:23;;;;;;;19.93;11.27;;;;;;;3.23;100.00;102249.97;5156003;57;1141079;-75
2022/01/24 22:27:53;;;;;;;24.30;11.48;;;;;;;3.22;100.00;102243.02;5152099;57;1139060;-70
2022/01/24 22:32:59;;;;;;;25.97;12.87;;;;;;;3.22;100.00;102243.88;5150308;57;1141137;-79
2022/01/24 22:38:05;;;;;;;18.97;9.80;;;;;;;3.21;100.00;102246.56;5141579;57;1141171;-74
2022/01/24 22:43:11;;;;;;;13.17;8.03;;;;;;;3.21;100.00;102238.23;5141481;57;1138999;-77
2022/01/24 22:48:16;;;;;;;15.33;10.07;;;;;;;3.21;100.00;102235.62;5141687;57;1141246;-78
2022/01/24 22:53:23;;;;;;;13.47;7.80;;;;;;;3.20;100.00;102236.98;5141637;57;1141115;-76
2022/01/24 22:58:29;;;;;;;16.37;7.13;;;;;;;3.16;100.00;102229.20;5140870;57;1139015;-76
2022/01/24 23:03:35;;;;;;;13.83;7.33;;;;;;;3.12;100.00;102222.30;5140038;57;1139300;-74
2022/01/24 23:08:41;;;;;;;15.53;8.10;;;;;;;3.12;100.00;102221.44;5140411;57;1139176;-74
2022/01/24 23:24:22;;;;;;;6.90;3.47;;;;;;;3.08;100.00;102186.64;5183805;56;1137128;-77
2022/01/24 23:29:27;;;;;;;7.33;3.93;;;;;;;3.05;100.00;102177.58;5210382;56;1134903;-74
2022/01/24 23:39:55;;;;;;;3.27;2.57;;;;;;;2.93;100.00;102187.39;5208889;56;1135092;-73
2022/01/24 23:44:58;;;;;;;4.23;1.93;;;;;;;2.89;100.00;102181.39;5208176;56;1135153;-71
2022/01/24 23:50:05;;;;;;;4.30;3.03;;;;;;;2.85;100.00;102188.86;5207831;56;1134982;-73
2022/01/24 23:55:12;;;;;;;4.93;2.10;;;;;;;2.81;100.00;102172.81;5207760;56;1134764;-76
